Terminal Aerodrome Forecast
Issued by NWS

Current Version | Previous Version | Text Only | Print | Product List | Glossary On
Versions: 1 2 3 4 5 6 7 8 9 10 11 12 13 14 15 16 17 18 19 20 21
099
FTUS43 KSGF 171500 AAA
TAFBBG
TAF AMD
KBBG 171500Z 1715/1812 28007KT P6SM OVC015
     FM171700 29007KT P6SM OVC020
     FM180000 30005KT P6SM SCT035
     FM180600 VRB03KT P6SM BKN250=

USA.gov is the U.S. government's official web portal to all federal, state and local government web resources and services.